Nearby METAR Reports

 

KDWH - Houston/Dw Hooks, Texas, USA
Distance from station: WNW 3mi, 6km
Updated: 09/20/2020 4:53am
Clear
Clear
 Wind from N
Wind: N 7 mph , 11 km/h
Temperature: 66°F , 19°C
Dew Point: 55°F , 13°C
Humidity: 68%
Barometer: 30.00 inHg , 1015.9 hPa
Clouds: Clear
Visibility: 10 miles , 16 km
2020/09/20 09:53 KDWH 200953Z AUTO 01006KT 10SM CLR 19/13 A3000 RMK AO2 SLP156 T01890133
KIAH - Houston/Intnl, Texas, USA
Distance from station: ESE 9mi, 14km
Updated: 09/20/2020 4:53am
Clear
Clear
 Wind from N
Wind: N 9 mph , 15 km/h
Temperature: 68°F , 20°C
Dew Point: 57°F , 14°C
Humidity: 69%
Barometer: 29.99 inHg , 1015.6 hPa
Clouds: Clear
Visibility: 10 miles , 16 km
2020/09/20 09:53 KIAH 200953Z 01008KT 10SM CLR 20/14 A2999 RMK AO2 SLP154 T02000139
 
KCXO - Conroe, Texas, USA
Distance from station: NNE 21mi, 34km
Updated: 09/20/2020 4:53am
Clear
Clear
 Wind from N
Wind: N 7 mph , 11 km/h
Temperature: 64°F , 18°C
Dew Point: 57°F , 14°C
Humidity: 78%
Barometer: 30.02 inHg , 1016.6 hPa
Clouds: Clear
Visibility: 10 miles , 16 km
2020/09/20 09:53 KCXO 200953Z AUTO 36006KT 10SM CLR 18/14 A3002 RMK AO2 SLP161 T01780144
KMCJ - Houston/Univ, Texas, USA
Distance from station: SSE 24mi, 39km
Updated: 09/20/2020 5:15am
Clear
Clear
 Wind from N
Wind: N 14 mph , 22 km/h
Temperature: 68°F , 20°C
Dew Point: 57°F , 14°C
Humidity: 69%
Barometer: 29.96 inHg , 1014.6 hPa
Clouds: Clear
Visibility: 10 miles , 16 km
2020/09/20 10:15 KMCJ 201015Z AUTO 36012KT 10SM CLR 20/14 A2996 RMK A01
 
KTME - Houston Exec, Texas, USA
Distance from station: SW 30mi, 48km
Updated: 09/20/2020 5:15am
Clear
Clear
 Wind from NNE
Wind: NNE 7 mph , 11 km/h
Temperature: 63°F , 17°C
Dew Point: 61°F , 16°C
Humidity: 94%
Barometer: 30.02 inHg , 1016.6 hPa
Clouds: Clear
Visibility: 9 miles , 14 km
2020/09/20 10:15 KTME 201015Z AUTO 03006KT 9SM CLR 17/16 A3002 RMK AO2
KHOU - Houston/Hobby, Texas, USA
Distance from station: SSE 32mi, 51km
Updated: 09/20/2020 4:53am
Few Clouds
Few Clouds
 Wind from N
Wind: N 16 mph , 26 km/h, Gust: 22 mph , 35 km/h
Temperature: 72°F , 22°C
Dew Point: 57°F , 14°C
Humidity: 61%
Barometer: 29.96 inHg , 1014.6 hPa
Clouds: Few Clouds
Visibility: 10 miles , 16 km
Cloud details: Few Clouds 8000 ft
2020/09/20 09:53 KHOU 200953Z 01014G19KT 10SM FEW080 22/14 A2996 RMK AO2 SLP150 T02170144
 
KSGR - Houston/Sugar La, Texas, USA
Distance from station: SSW 32mi, 51km
Updated: 09/20/2020 4:53am
Light rain, Clear
Light rain, Clear
 Wind from NNE
Wind: NNE 10 mph , 17 km/h
Temperature: 70°F , 21°C
Dew Point: 57°F , 14°C
Humidity: 64%
Barometer: 29.98 inHg , 1015.2 hPa
Summary: Light rain
Clouds: Clear
Visibility: 10 miles , 16 km
2020/09/20 09:53 KSGR 200953Z AUTO 03009KT 10SM -RA CLR 21/14 A2998 RMK AO2 RAB42 SLP153 P0000 T02110144
K6R3 - Cleveland Muni, Texas, USA
Distance from station: NE 36mi, 58km
Updated: 09/20/2020 5:15am
Clear
Clear
 Wind from N
Wind: N 5 mph , 7 km/h
Temperature: 64°F , 18°C
Dew Point: 57°F , 14°C
Humidity: 78%
Barometer: 30.01 inHg , 1016.3 hPa
Clouds: Clear
Visibility: 7 miles , 11 km
2020/09/20 10:15 K6R3 201015Z AUTO 36004KT 7SM CLR 18/14 A3001 RMK AO2 T01760136
 
KAXH - Houston/Southwst, Texas, USA
Distance from station: S 37mi, 60km
Updated: 09/20/2020 5:15am
Clear
Clear
 Wind from N
Wind: N 6 mph , 9 km/h
Temperature: 68°F , 20°C
Dew Point: 59°F , 15°C
Humidity: 73%
Barometer: 29.98 inHg , 1015.2 hPa
Clouds: Clear
Visibility: 10 miles , 16 km
2020/09/20 10:15 KAXH 201015Z AUTO 36005KT 10SM CLR 20/15 A2998 RMK AO2 T02000148
KEFD - Houston/Ellingto, Texas, USA
Distance from station: SSE 37mi, 60km
Updated: 09/20/2020 4:50am
Few Clouds
Few Clouds
 Wind from N
Wind: N 12 mph , 19 km/h, Gust: 17 mph , 28 km/h
Temperature: 70°F , 21°C
Dew Point: 59°F , 15°C
Humidity: 69%
Barometer: 29.96 inHg , 1014.6 hPa
Clouds: Few Clouds
Visibility: 10 miles , 16 km
Cloud details: Few Clouds 5000 ft
2020/09/20 09:50 KEFD 200950Z 01010G15KT 10SM FEW050 21/15 A2996
 
KLVJ - Houston, Texas, USA
Distance from station: SSE 40mi, 64km
Updated: 09/20/2020 4:53am
Clear
Clear
 Wind from NNE
Wind: NNE 12 mph , 19 km/h
Temperature: 72°F , 22°C
Dew Point: 57°F , 14°C
Humidity: 61%
Barometer: 29.97 inHg , 1014.9 hPa
Clouds: Clear
Visibility: 9 miles , 14 km
2020/09/20 09:53 KLVJ 200953Z AUTO 02010KT 9SM CLR 22/14 A2997 RMK AO2 SLP148 T02170139
KUTS - Huntsville, Texas, USA
Distance from station: N 48mi, 78km
Updated: 09/20/2020 4:53am
Clear
Clear
 Wind from N
Wind: N 5 mph , 7 km/h
Temperature: 61°F , 16°C
Dew Point: 55°F , 13°C
Humidity: 83%
Barometer: 30.04 inHg , 1017.3 hPa
Clouds: Clear
Visibility: 9 miles , 14 km
2020/09/20 09:53 KUTS 200953Z AUTO 36004KT 9SM CLR 16/13 A3004 RMK AO2 SLP167 T01560128